sensor_id;sensor_type;location;lat;lon;timestamp;temperature;humidity
4520;DHT22;2272;49.226;8.108;2023-09-07T00:01:31;18.00;99.90
4520;DHT22;2272;49.226;8.108;2023-09-07T00:03:57;17.80;99.90
4520;DHT22;2272;49.226;8.108;2023-09-07T00:06:25;17.90;99.90
4520;DHT22;2272;49.226;8.108;2023-09-07T00:08:52;17.80;99.90
4520;DHT22;2272;49.226;8.108;2023-09-07T00:11:19;17.80;99.90
4520;DHT22;2272;49.226;8.108;2023-09-07T00:13:46;17.80;99.90
4520;DHT22;2272;49.226;8.108;2023-09-07T00:16:15;17.80;99.90
4520;DHT22;2272;49.226;8.108;2023-09-07T00:18:43;17.80;99.90
4520;DHT22;2272;49.226;8.108;2023-09-07T00:21:10;17.80;99.90
4520;DHT22;2272;49.226;8.108;2023-09-07T00:23:39;17.90;99.90
4520;DHT22;2272;49.226;8.108;2023-09-07T00:26:06;17.80;99.90
4520;DHT22;2272;49.226;8.108;2023-09-07T00:28:32;17.80;99.90
4520;DHT22;2272;49.226;8.108;2023-09-07T00:30:59;17.70;99.90
4520;DHT22;2272;49.226;8.108;2023-09-07T00:33:27;17.70;99.90
4520;DHT22;2272;49.226;8.108;2023-09-07T00:35:54;17.70;99.90
4520;DHT22;2272;49.226;8.108;2023-09-07T00:38:21;17.70;99.90
4520;DHT22;2272;49.226;8.108;2023-09-07T00:40:48;17.70;99.90
4520;DHT22;2272;49.226;8.108;2023-09-07T00:43:15;17.70;99.90
4520;DHT22;2272;49.226;8.108;2023-09-07T00:45:42;17.70;99.90
4520;DHT22;2272;49.226;8.108;2023-09-07T00:48:09;17.60;99.90
4520;DHT22;2272;49.226;8.108;2023-09-07T00:50:40;17.50;99.90
4520;DHT22;2272;49.226;8.108;2023-09-07T00:53:07;17.50;99.90
4520;DHT22;2272;49.226;8.108;2023-09-07T00:55:34;17.40;99.90
4520;DHT22;2272;49.226;8.108;2023-09-07T00:58:03;17.40;99.90
4520;DHT22;2272;49.226;8.108;2023-09-07T01:00:30;17.40;99.90
4520;DHT22;2272;49.226;8.108;2023-09-07T01:02:58;17.30;99.90
4520;DHT22;2272;49.226;8.108;2023-09-07T01:05:31;17.30;99.90
4520;DHT22;2272;49.226;8.108;2023-09-07T01:08:06;17.20;99.90
4520;DHT22;2272;49.226;8.108;2023-09-07T01:10:34;17.10;99.90
4520;DHT22;2272;49.226;8.108;2023-09-07T01:13:01;17.10;99.90
4520;DHT22;2272;49.226;8.108;2023-09-07T01:15:28;17.00;99.90
4520;DHT22;2272;49.226;8.108;2023-09-07T01:17:55;16.90;99.90
4520;DHT22;2272;49.226;8.108;2023-09-07T01:20:23;16.90;99.90
4520;DHT22;2272;49.226;8.108;2023-09-07T01:22:53;16.90;99.90
4520;DHT22;2272;49.226;8.108;2023-09-07T01:25:20;16.90;99.90
4520;DHT22;2272;49.226;8.108;2023-09-07T01:27:49;17.00;99.90
4520;DHT22;2272;49.226;8.108;2023-09-07T01:30:16;17.00;99.90
4520;DHT22;2272;49.226;8.108;2023-09-07T01:32:43;17.10;99.90
4520;DHT22;2272;49.226;8.108;2023-09-07T01:35:11;17.10;99.90
4520;DHT22;2272;49.226;8.108;2023-09-07T01:37:40;17.20;99.90
4520;DHT22;2272;49.226;8.108;2023-09-07T01:40:08;17.20;99.90
4520;DHT22;2272;49.226;8.108;2023-09-07T01:42:35;17.20;99.90
4520;DHT22;2272;49.226;8.108;2023-09-07T01:45:02;17.20;99.90
4520;DHT22;2272;49.226;8.108;2023-09-07T01:47:29;17.30;99.90
4520;DHT22;2272;49.226;8.108;2023-09-07T01:49:58;17.30;99.90
4520;DHT22;2272;49.226;8.108;2023-09-07T01:52:25;17.30;99.90
4520;DHT22;2272;49.226;8.108;2023-09-07T01:54:52;17.20;99.90
4520;DHT22;2272;49.226;8.108;2023-09-07T01:57:20;17.30;99.90
4520;DHT22;2272;49.226;8.108;2023-09-07T01:59:47;17.20;99.90
4520;DHT22;2272;49.226;8.108;2023-09-07T02:02:15;17.20;99.90
4520;DHT22;2272;49.226;8.108;2023-09-07T02:04:42;17.20;99.90
4520;DHT22;2272;49.226;8.108;2023-09-07T02:07:11;17.20;99.90
4520;DHT22;2272;49.226;8.108;2023-09-07T02:09:38;17.20;99.90
4520;DHT22;2272;49.226;8.108;2023-09-07T02:12:05;17.20;99.90
4520;DHT22;2272;49.226;8.108;2023-09-07T02:14:33;17.20;99.90
4520;DHT22;2272;49.226;8.108;2023-09-07T02:17:00;17.20;99.90
4520;DHT22;2272;49.226;8.108;2023-09-07T02:19:27;17.20;99.90
4520;DHT22;2272;49.226;8.108;2023-09-07T02:21:53;17.20;99.90
4520;DHT22;2272;49.226;8.108;2023-09-07T02:24:20;17.30;99.90
4520;DHT22;2272;49.226;8.108;2023-09-07T02:26:47;17.40;99.90
4520;DHT22;2272;49.226;8.108;2023-09-07T02:29:13;17.40;99.90
4520;DHT22;2272;49.226;8.108;2023-09-07T02:31:42;17.30;99.90
4520;DHT22;2272;49.226;8.108;2023-09-07T02:34:08;17.30;99.90
4520;DHT22;2272;49.226;8.108;2023-09-07T02:36:35;17.30;99.90
4520;DHT22;2272;49.226;8.108;2023-09-07T02:39:02;17.30;99.90
4520;DHT22;2272;49.226;8.108;2023-09-07T02:41:31;17.30;99.90
4520;DHT22;2272;49.226;8.108;2023-09-07T02:43:57;17.30;99.90
4520;DHT22;2272;49.226;8.108;2023-09-07T02:46:24;17.30;99.90
4520;DHT22;2272;49.226;8.108;2023-09-07T02:48:52;17.20;99.90
4520;DHT22;2272;49.226;8.108;2023-09-07T02:51:22;17.20;99.90
4520;DHT22;2272;49.226;8.108;2023-09-07T02:53:49;17.10;99.90
4520;DHT22;2272;49.226;8.108;2023-09-07T02:56:16;17.00;99.90
4520;DHT22;2272;49.226;8.108;2023-09-07T02:58:43;17.00;99.90
4520;DHT22;2272;49.226;8.108;2023-09-07T03:01:10;16.90;99.90
4520;DHT22;2272;49.226;8.108;2023-09-07T03:03:38;16.90;99.90
4520;DHT22;2272;49.226;8.108;2023-09-07T03:06:10;16.90;99.90
4520;DHT22;2272;49.226;8.108;2023-09-07T03:08:38;16.80;99.90
4520;DHT22;2272;49.226;8.108;2023-09-07T03:11:06;16.70;99.90
4520;DHT22;2272;49.226;8.108;2023-09-07T03:13:33;16.70;99.90
4520;DHT22;2272;49.226;8.108;2023-09-07T03:16:01;16.60;99.90
4520;DHT22;2272;49.226;8.108;2023-09-07T03:18:28;16.60;99.90
4520;DHT22;2272;49.226;8.108;2023-09-07T03:20:57;16.60;99.90
4520;DHT22;2272;49.226;8.108;2023-09-07T03:23:27;16.60;99.90
4520;DHT22;2272;49.226;8.108;2023-09-07T03:25:53;16.60;99.90
4520;DHT22;2272;49.226;8.108;2023-09-07T03:28:20;16.60;99.90
4520;DHT22;2272;49.226;8.108;2023-09-07T03:30:47;16.50;99.90
4520;DHT22;2272;49.226;8.108;2023-09-07T03:33:13;16.50;99.90
4520;DHT22;2272;49.226;8.108;2023-09-07T03:35:40;16.50;99.90
4520;DHT22;2272;49.226;8.108;2023-09-07T03:38:07;16.40;99.90
4520;DHT22;2272;49.226;8.108;2023-09-07T03:40:35;16.40;99.90
4520;DHT22;2272;49.226;8.108;2023-09-07T03:43:02;16.30;99.90
4520;DHT22;2272;49.226;8.108;2023-09-07T03:45:29;16.30;99.90
4520;DHT22;2272;49.226;8.108;2023-09-07T03:47:56;16.20;99.90
4520;DHT22;2272;49.226;8.108;2023-09-07T03:50:23;16.10;99.90
4520;DHT22;2272;49.226;8.108;2023-09-07T03:52:49;16.10;99.90
4520;DHT22;2272;49.226;8.108;2023-09-07T03:55:16;16.20;99.90
4520;DHT22;2272;49.226;8.108;2023-09-07T03:57:44;16.20;99.90
4520;DHT22;2272;49.226;8.108;2023-09-07T04:00:13;16.20;99.90
4520;DHT22;2272;49.226;8.108;2023-09-07T04:02:41;16.20;99.90
4520;DHT22;2272;49.226;8.108;2023-09-07T04:05:08;16.10;99.90
4520;DHT22;2272;49.226;8.108;2023-09-07T04:07:36;16.10;99.90
4520;DHT22;2272;49.226;8.108;2023-09-07T04:10:03;16.10;99.90
4520;DHT22;2272;49.226;8.108;2023-09-07T04:12:30;16.00;99.90
4520;DHT22;2272;49.226;8.108;2023-09-07T04:15:00;16.00;99.90
4520;DHT22;2272;49.226;8.108;2023-09-07T04:17:27;16.10;99.90
4520;DHT22;2272;49.226;8.108;2023-09-07T04:19:54;16.10;99.90
4520;DHT22;2272;49.226;8.108;2023-09-07T04:22:21;16.10;99.90
4520;DHT22;2272;49.226;8.108;2023-09-07T04:24:48;16.00;99.90
4520;DHT22;2272;49.226;8.108;2023-09-07T04:27:15;16.00;99.90
4520;DHT22;2272;49.226;8.108;2023-09-07T04:29:42;16.00;99.90
4520;DHT22;2272;49.226;8.108;2023-09-07T04:32:12;16.00;99.90
4520;DHT22;2272;49.226;8.108;2023-09-07T04:34:38;16.00;99.90
4520;DHT22;2272;49.226;8.108;2023-09-07T04:37:05;16.10;99.90
4520;DHT22;2272;49.226;8.108;2023-09-07T04:39:32;16.10;99.90
4520;DHT22;2272;49.226;8.108;2023-09-07T04:41:59;16.00;99.90
4520;DHT22;2272;49.226;8.108;2023-09-07T04:44:26;16.00;99.90
4520;DHT22;2272;49.226;8.108;2023-09-07T04:46:55;16.00;99.90
4520;DHT22;2272;49.226;8.108;2023-09-07T04:49:23;16.10;99.90
4520;DHT22;2272;49.226;8.108;2023-09-07T04:51:53;16.10;99.90
4520;DHT22;2272;49.226;8.108;2023-09-07T04:54:20;16.10;99.90
4520;DHT22;2272;49.226;8.108;2023-09-07T04:56:47;16.10;99.90
4520;DHT22;2272;49.226;8.108;2023-09-07T04:59:14;16.20;99.90
4520;DHT22;2272;49.226;8.108;2023-09-07T05:01:40;16.20;99.90
4520;DHT22;2272;49.226;8.108;2023-09-07T05:04:07;16.20;99.90
4520;DHT22;2272;49.226;8.108;2023-09-07T05:06:35;16.30;99.90
4520;DHT22;2272;49.226;8.108;2023-09-07T05:09:04;16.40;99.90
4520;DHT22;2272;49.226;8.108;2023-09-07T05:11:30;16.40;99.90
4520;DHT22;2272;49.226;8.108;2023-09-07T05:14:00;16.40;99.90
4520;DHT22;2272;49.226;8.108;2023-09-07T05:16:27;16.30;99.90
4520;DHT22;2272;49.226;8.108;2023-09-07T05:18:53;16.20;99.90
4520;DHT22;2272;49.226;8.108;2023-09-07T05:21:20;16.20;99.90
4520;DHT22;2272;49.226;8.108;2023-09-07T05:23:49;16.10;99.90
4520;DHT22;2272;49.226;8.108;2023-09-07T05:26:21;16.20;99.90
4520;DHT22;2272;49.226;8.108;2023-09-07T05:28:49;16.20;99.90
4520;DHT22;2272;49.226;8.108;2023-09-07T05:31:16;16.20;99.90
4520;DHT22;2272;49.226;8.108;2023-09-07T05:33:43;16.20;99.90
4520;DHT22;2272;49.226;8.108;2023-09-07T05:36:10;16.30;99.90
4520;DHT22;2272;49.226;8.108;2023-09-07T05:38:37;16.40;99.90
4520;DHT22;2272;49.226;8.108;2023-09-07T05:41:06;16.50;99.90
4520;DHT22;2272;49.226;8.108;2023-09-07T05:43:33;16.60;99.90
4520;DHT22;2272;49.226;8.108;2023-09-07T05:46:00;16.60;99.90
4520;DHT22;2272;49.226;8.108;2023-09-07T05:48:27;16.70;99.90
4520;DHT22;2272;49.226;8.108;2023-09-07T05:50:54;16.80;99.90
4520;DHT22;2272;49.226;8.108;2023-09-07T05:53:21;16.90;99.90
4520;DHT22;2272;49.226;8.108;2023-09-07T05:55:50;17.00;99.90
4520;DHT22;2272;49.226;8.108;2023-09-07T05:58:18;17.00;99.90
4520;DHT22;2272;49.226;8.108;2023-09-07T06:00:45;17.10;99.90
4520;DHT22;2272;49.226;8.108;2023-09-07T06:03:12;17.20;99.90
4520;DHT22;2272;49.226;8.108;2023-09-07T06:05:39;17.30;99.90
4520;DHT22;2272;49.226;8.108;2023-09-07T06:08:06;17.40;99.90
4520;DHT22;2272;49.226;8.108;2023-09-07T06:10:33;17.50;99.90
4520;DHT22;2272;49.226;8.108;2023-09-07T06:13:00;17.60;99.90
4520;DHT22;2272;49.226;8.108;2023-09-07T06:15:29;17.70;99.90
4520;DHT22;2272;49.226;8.108;2023-09-07T06:17:56;17.80;99.90
4520;DHT22;2272;49.226;8.108;2023-09-07T06:20:23;17.90;99.90
4520;DHT22;2272;49.226;8.108;2023-09-07T06:22:49;18.00;99.90
4520;DHT22;2272;49.226;8.108;2023-09-07T06:25:17;18.10;99.90
4520;DHT22;2272;49.226;8.108;2023-09-07T06:27:44;18.20;99.90
4520;DHT22;2272;49.226;8.108;2023-09-07T06:30:11;18.30;99.90
4520;DHT22;2272;49.226;8.108;2023-09-07T06:32:40;18.30;99.90
4520;DHT22;2272;49.226;8.108;2023-09-07T06:35:08;18.40;99.90
4520;DHT22;2272;49.226;8.108;2023-09-07T06:37:35;18.50;99.90
4520;DHT22;2272;49.226;8.108;2023-09-07T06:40:07;18.60;99.90
4520;DHT22;2272;49.226;8.108;2023-09-07T06:42:34;18.70;99.90
4520;DHT22;2272;49.226;8.108;2023-09-07T06:45:01;18.80;99.90
4520;DHT22;2272;49.226;8.108;2023-09-07T06:47:28;18.90;99.90
4520;DHT22;2272;49.226;8.108;2023-09-07T06:49:56;19.00;99.90
4520;DHT22;2272;49.226;8.108;2023-09-07T06:52:23;19.10;99.90
4520;DHT22;2272;49.226;8.108;2023-09-07T06:54:51;19.10;99.90
4520;DHT22;2272;49.226;8.108;2023-09-07T06:57:18;19.20;99.90
4520;DHT22;2272;49.226;8.108;2023-09-07T06:59:45;19.30;99.90
4520;DHT22;2272;49.226;8.108;2023-09-07T07:02:12;19.40;99.90
4520;DHT22;2272;49.226;8.108;2023-09-07T07:04:39;19.40;99.90
4520;DHT22;2272;49.226;8.108;2023-09-07T07:07:07;19.50;99.90
4520;DHT22;2272;49.226;8.108;2023-09-07T07:09:34;19.60;99.90
4520;DHT22;2272;49.226;8.108;2023-09-07T07:12:02;19.60;99.90
4520;DHT22;2272;49.226;8.108;2023-09-07T07:14:29;19.60;99.90
4520;DHT22;2272;49.226;8.108;2023-09-07T07:16:56;19.70;99.90
4520;DHT22;2272;49.226;8.108;2023-09-07T07:19:22;19.70;99.90
4520;DHT22;2272;49.226;8.108;2023-09-07T07:21:50;19.70;99.90
4520;DHT22;2272;49.226;8.108;2023-09-07T07:24:19;19.80;99.90
4520;DHT22;2272;49.226;8.108;2023-09-07T07:26:46;19.80;99.90
4520;DHT22;2272;49.226;8.108;2023-09-07T07:29:13;19.80;99.90
4520;DHT22;2272;49.226;8.108;2023-09-07T07:31:40;19.80;99.90
4520;DHT22;2272;49.226;8.108;2023-09-07T07:34:06;19.90;99.90
4520;DHT22;2272;49.226;8.108;2023-09-07T07:36:33;19.90;99.90
4520;DHT22;2272;49.226;8.108;2023-09-07T07:39:01;20.00;99.90
4520;DHT22;2272;49.226;8.108;2023-09-07T07:41:30;20.10;99.90
4520;DHT22;2272;49.226;8.108;2023-09-07T07:43:57;20.20;99.90
4520;DHT22;2272;49.226;8.108;2023-09-07T07:46:24;20.20;99.90
4520;DHT22;2272;49.226;8.108;2023-09-07T07:48:51;20.20;99.90
4520;DHT22;2272;49.226;8.108;2023-09-07T07:51:18;20.30;99.90
4520;DHT22;2272;49.226;8.108;2023-09-07T07:53:44;20.40;99.90
4520;DHT22;2272;49.226;8.108;2023-09-07T07:56:15;20.50;99.90
4520;DHT22;2272;49.226;8.108;2023-09-07T08:01:23;20.60;99.90
4520;DHT22;2272;49.226;8.108;2023-09-07T08:03:52;20.60;99.90
4520;DHT22;2272;49.226;8.108;2023-09-07T08:06:21;20.80;99.90
4520;DHT22;2272;49.226;8.108;2023-09-07T08:08:49;20.80;99.90
4520;DHT22;2272;49.226;8.108;2023-09-07T08:11:17;20.80;99.90
4520;DHT22;2272;49.226;8.108;2023-09-07T08:13:46;21.00;99.90
4520;DHT22;2272;49.226;8.108;2023-09-07T08:16:13;21.10;99.90
4520;DHT22;2272;49.226;8.108;2023-09-07T08:26:32;21.40;99.90
4520;DHT22;2272;49.226;8.108;2023-09-07T08:28:59;21.50;99.90
4520;DHT22;2272;49.226;8.108;2023-09-07T08:31:31;21.60;99.90
4520;DHT22;2272;49.226;8.108;2023-09-07T08:36:35;21.80;99.90
4520;DHT22;2272;49.226;8.108;2023-09-07T08:39:03;22.00;99.90
4520;DHT22;2272;49.226;8.108;2023-09-07T08:41:36;22.00;99.90
4520;DHT22;2272;49.226;8.108;2023-09-07T08:44:08;22.20;99.90
4520;DHT22;2272;49.226;8.108;2023-09-07T08:46:36;22.30;99.90
4520;DHT22;2272;49.226;8.108;2023-09-07T08:49:03;22.40;99.90
4520;DHT22;2272;49.226;8.108;2023-09-07T08:51:31;22.60;99.90
4520;DHT22;2272;49.226;8.108;2023-09-07T08:53:58;22.70;99.90
4520;DHT22;2272;49.226;8.108;2023-09-07T08:56:25;22.80;99.90
4520;DHT22;2272;49.226;8.108;2023-09-07T08:58:56;22.70;99.90
4520;DHT22;2272;49.226;8.108;2023-09-07T09:01:23;22.90;99.90
4520;DHT22;2272;49.226;8.108;2023-09-07T09:03:50;22.90;99.90
4520;DHT22;2272;49.226;8.108;2023-09-07T09:19:32;23.30;99.90
4520;DHT22;2272;49.226;8.108;2023-09-07T09:22:07;23.50;99.90
4520;DHT22;2272;49.226;8.108;2023-09-07T09:24:41;23.60;99.90
4520;DHT22;2272;49.226;8.108;2023-09-07T09:27:08;23.80;99.90
4520;DHT22;2272;49.226;8.108;2023-09-07T09:29:36;23.80;99.90
4520;DHT22;2272;49.226;8.108;2023-09-07T09:32:07;23.80;99.90
4520;DHT22;2272;49.226;8.108;2023-09-07T09:34:36;23.80;99.90
4520;DHT22;2272;49.226;8.108;2023-09-07T09:37:04;23.80;99.90
4520;DHT22;2272;49.226;8.108;2023-09-07T09:39:40;23.90;99.90
4520;DHT22;2272;49.226;8.108;2023-09-07T09:42:08;24.00;99.90
4520;DHT22;2272;49.226;8.108;2023-09-07T09:44:36;24.20;99.90
4520;DHT22;2272;49.226;8.108;2023-09-07T09:47:10;24.30;99.90
4520;DHT22;2272;49.226;8.108;2023-09-07T09:49:39;24.40;99.90
4520;DHT22;2272;49.226;8.108;2023-09-07T09:52:08;24.30;99.90
4520;DHT22;2272;49.226;8.108;2023-09-07T09:54:35;24.40;99.90
4520;DHT22;2272;49.226;8.108;2023-09-07T09:57:03;24.50;99.90
4520;DHT22;2272;49.226;8.108;2023-09-07T09:59:30;24.60;99.90
4520;DHT22;2272;49.226;8.108;2023-09-07T10:01:58;24.80;99.90
4520;DHT22;2272;49.226;8.108;2023-09-07T10:04:27;25.00;99.90
4520;DHT22;2272;49.226;8.108;2023-09-07T10:06:58;25.30;99.90
4520;DHT22;2272;49.226;8.108;2023-09-07T10:09:29;25.50;99.90
4520;DHT22;2272;49.226;8.108;2023-09-07T10:11:57;25.40;99.90
4520;DHT22;2272;49.226;8.108;2023-09-07T10:14:37;25.60;99.90
4520;DHT22;2272;49.226;8.108;2023-09-07T10:17:05;25.60;99.90
4520;DHT22;2272;49.226;8.108;2023-09-07T10:19:33;25.60;99.90
4520;DHT22;2272;49.226;8.108;2023-09-07T10:22:03;25.60;99.90
4520;DHT22;2272;49.226;8.108;2023-09-07T10:24:31;25.60;99.90
4520;DHT22;2272;49.226;8.108;2023-09-07T10:27:02;25.60;99.90
4520;DHT22;2272;49.226;8.108;2023-09-07T10:29:40;25.70;99.90
4520;DHT22;2272;49.226;8.108;2023-09-07T10:32:08;25.80;99.90
4520;DHT22;2272;49.226;8.108;2023-09-07T10:34:38;25.90;99.90
4520;DHT22;2272;49.226;8.108;2023-09-07T10:37:09;26.00;99.90
4520;DHT22;2272;49.226;8.108;2023-09-07T10:39:39;26.10;99.90
4520;DHT22;2272;49.226;8.108;2023-09-07T10:42:08;26.10;99.90
4520;DHT22;2272;49.226;8.108;2023-09-07T10:44:35;26.20;99.90
4520;DHT22;2272;49.226;8.108;2023-09-07T10:47:04;26.20;99.90
4520;DHT22;2272;49.226;8.108;2023-09-07T10:49:31;26.40;99.90
4520;DHT22;2272;49.226;8.108;2023-09-07T10:51:59;26.60;99.90
4520;DHT22;2272;49.226;8.108;2023-09-07T10:54:26;26.90;99.90
4520;DHT22;2272;49.226;8.108;2023-09-07T10:57:08;27.10;99.90
4520;DHT22;2272;49.226;8.108;2023-09-07T10:59:35;27.20;99.90
4520;DHT22;2272;49.226;8.108;2023-09-07T11:02:04;27.20;99.90
4520;DHT22;2272;49.226;8.108;2023-09-07T11:04:31;27.30;99.90
4520;DHT22;2272;49.226;8.108;2023-09-07T11:06:59;27.50;99.90
4520;DHT22;2272;49.226;8.108;2023-09-07T11:09:26;27.50;99.90
4520;DHT22;2272;49.226;8.108;2023-09-07T11:11:53;27.50;99.90
4520;DHT22;2272;49.226;8.108;2023-09-07T11:14:21;27.60;99.90
4520;DHT22;2272;49.226;8.108;2023-09-07T11:16:49;27.70;99.90
4520;DHT22;2272;49.226;8.108;2023-09-07T11:19:16;27.70;99.90
4520;DHT22;2272;49.226;8.108;2023-09-07T11:21:45;27.70;99.90
4520;DHT22;2272;49.226;8.108;2023-09-07T11:24:15;27.50;99.90
4520;DHT22;2272;49.226;8.108;2023-09-07T11:26:43;27.50;99.90
4520;DHT22;2272;49.226;8.108;2023-09-07T11:29:13;27.70;99.90
4520;DHT22;2272;49.226;8.108;2023-09-07T11:31:41;27.80;99.90
4520;DHT22;2272;49.226;8.108;2023-09-07T11:34:09;27.80;99.90
4520;DHT22;2272;49.226;8.108;2023-09-07T11:36:36;27.90;99.90
4520;DHT22;2272;49.226;8.108;2023-09-07T11:39:04;27.90;99.90
4520;DHT22;2272;49.226;8.108;2023-09-07T11:41:39;27.90;99.90
4520;DHT22;2272;49.226;8.108;2023-09-07T11:44:06;28.10;99.90
4520;DHT22;2272;49.226;8.108;2023-09-07T11:46:34;28.10;99.90
4520;DHT22;2272;49.226;8.108;2023-09-07T11:49:01;28.10;99.90
4520;DHT22;2272;49.226;8.108;2023-09-07T11:51:30;28.10;99.90
4520;DHT22;2272;49.226;8.108;2023-09-07T11:53:57;28.20;99.90
4520;DHT22;2272;49.226;8.108;2023-09-07T11:56:24;28.20;99.90
4520;DHT22;2272;49.226;8.108;2023-09-07T11:58:53;28.20;99.90
4520;DHT22;2272;49.226;8.108;2023-09-07T12:01:20;28.20;99.90
4520;DHT22;2272;49.226;8.108;2023-09-07T12:03:47;28.30;99.90
4520;DHT22;2272;49.226;8.108;2023-09-07T12:06:22;28.40;99.90
4520;DHT22;2272;49.226;8.108;2023-09-07T12:09:04;28.50;99.90
4520;DHT22;2272;49.226;8.108;2023-09-07T12:11:32;28.50;99.90
4520;DHT22;2272;49.226;8.108;2023-09-07T12:14:01;28.50;99.90
4520;DHT22;2272;49.226;8.108;2023-09-07T12:16:29;28.40;99.90
4520;DHT22;2272;49.226;8.108;2023-09-07T12:18:56;28.40;99.90
4520;DHT22;2272;49.226;8.108;2023-09-07T12:21:23;28.30;99.90
4520;DHT22;2272;49.226;8.108;2023-09-07T12:23:50;28.30;99.90
4520;DHT22;2272;49.226;8.108;2023-09-07T12:26:17;28.40;99.90
4520;DHT22;2272;49.226;8.108;2023-09-07T12:28:46;28.60;99.90
4520;DHT22;2272;49.226;8.108;2023-09-07T12:31:14;28.60;99.90
4520;DHT22;2272;49.226;8.108;2023-09-07T12:33:42;28.60;99.90
4520;DHT22;2272;49.226;8.108;2023-09-07T12:36:09;28.70;99.90
4520;DHT22;2272;49.226;8.108;2023-09-07T12:38:37;28.70;99.90
4520;DHT22;2272;49.226;8.108;2023-09-07T12:41:04;28.90;99.90
4520;DHT22;2272;49.226;8.108;2023-09-07T12:43:30;29.00;99.90
4520;DHT22;2272;49.226;8.108;2023-09-07T12:45:57;29.00;99.90
4520;DHT22;2272;49.226;8.108;2023-09-07T12:48:26;29.00;99.90
4520;DHT22;2272;49.226;8.108;2023-09-07T12:50:54;29.10;99.90
4520;DHT22;2272;49.226;8.108;2023-09-07T12:53:21;29.20;99.90
4520;DHT22;2272;49.226;8.108;2023-09-07T12:55:52;29.10;99.90
4520;DHT22;2272;49.226;8.108;2023-09-07T12:58:19;29.20;99.90
4520;DHT22;2272;49.226;8.108;2023-09-07T13:00:46;29.30;99.90
4520;DHT22;2272;49.226;8.108;2023-09-07T13:03:22;29.50;99.90
4520;DHT22;2272;49.226;8.108;2023-09-07T13:05:50;29.60;99.90
4520;DHT22;2272;49.226;8.108;2023-09-07T13:08:17;29.60;99.90
4520;DHT22;2272;49.226;8.108;2023-09-07T13:10:44;29.70;99.90
4520;DHT22;2272;49.226;8.108;2023-09-07T13:13:11;29.60;99.90
4520;DHT22;2272;49.226;8.108;2023-09-07T13:15:38;29.70;99.90
4520;DHT22;2272;49.226;8.108;2023-09-07T13:18:05;29.80;99.90
4520;DHT22;2272;49.226;8.108;2023-09-07T13:20:32;29.90;99.90
4520;DHT22;2272;49.226;8.108;2023-09-07T13:23:00;30.00;99.90
4520;DHT22;2272;49.226;8.108;2023-09-07T13:25:27;30.00;99.40
4520;DHT22;2272;49.226;8.108;2023-09-07T13:27:55;29.80;99.60
4520;DHT22;2272;49.226;8.108;2023-09-07T13:30:23;29.60;99.20
4520;DHT22;2272;49.226;8.108;2023-09-07T13:32:55;29.50;99.10
4520;DHT22;2272;49.226;8.108;2023-09-07T13:35:22;29.50;99.90
4520;DHT22;2272;49.226;8.108;2023-09-07T13:37:49;29.60;99.90
4520;DHT22;2272;49.226;8.108;2023-09-07T13:40:43;29.70;99.70
4520;DHT22;2272;49.226;8.108;2023-09-07T13:43:14;29.80;99.60
4520;DHT22;2272;49.226;8.108;2023-09-07T13:45:56;29.90;98.90
4520;DHT22;2272;49.226;8.108;2023-09-07T13:48:24;30.10;98.90
4520;DHT22;2272;49.226;8.108;2023-09-07T13:50:53;30.10;98.60
4520;DHT22;2272;49.226;8.108;2023-09-07T13:53:20;30.20;98.60
4520;DHT22;2272;49.226;8.108;2023-09-07T13:55:48;30.30;98.00
4520;DHT22;2272;49.226;8.108;2023-09-07T13:58:16;30.20;97.90
4520;DHT22;2272;49.226;8.108;2023-09-07T14:01:02;30.10;98.50
4520;DHT22;2272;49.226;8.108;2023-09-07T14:03:29;30.20;99.60
4520;DHT22;2272;49.226;8.108;2023-09-07T14:05:56;30.30;97.10
4520;DHT22;2272;49.226;8.108;2023-09-07T14:08:23;30.20;97.90
4520;DHT22;2272;49.226;8.108;2023-09-07T14:10:51;30.20;97.30
4520;DHT22;2272;49.226;8.108;2023-09-07T14:13:18;30.20;97.60
4520;DHT22;2272;49.226;8.108;2023-09-07T14:15:46;30.20;97.10
4520;DHT22;2272;49.226;8.108;2023-09-07T14:18:12;30.20;97.90
4520;DHT22;2272;49.226;8.108;2023-09-07T14:20:39;30.30;97.10
4520;DHT22;2272;49.226;8.108;2023-09-07T14:23:06;30.30;96.90
4520;DHT22;2272;49.226;8.108;2023-09-07T14:25:33;30.30;96.90
4520;DHT22;2272;49.226;8.108;2023-09-07T14:28:01;30.40;97.10
4520;DHT22;2272;49.226;8.108;2023-09-07T14:30:28;30.50;96.90
4520;DHT22;2272;49.226;8.108;2023-09-07T14:32:55;30.30;96.80
4520;DHT22;2272;49.226;8.108;2023-09-07T14:35:22;30.20;96.70
4520;DHT22;2272;49.226;8.108;2023-09-07T14:37:49;30.20;97.60
4520;DHT22;2272;49.226;8.108;2023-09-07T14:42:47;30.40;96.30
4520;DHT22;2272;49.226;8.108;2023-09-07T14:45:17;30.40;97.00
4520;DHT22;2272;49.226;8.108;2023-09-07T14:47:44;30.40;95.90
4520;DHT22;2272;49.226;8.108;2023-09-07T14:50:10;30.30;96.00
4520;DHT22;2272;49.226;8.108;2023-09-07T14:52:37;30.20;96.10
4520;DHT22;2272;49.226;8.108;2023-09-07T14:55:08;30.20;96.20
4520;DHT22;2272;49.226;8.108;2023-09-07T14:57:34;30.20;96.70
4520;DHT22;2272;49.226;8.108;2023-09-07T15:00:02;30.20;96.50
4520;DHT22;2272;49.226;8.108;2023-09-07T15:02:31;30.20;96.30
4520;DHT22;2272;49.226;8.108;2023-09-07T15:04:58;30.20;96.40
4520;DHT22;2272;49.226;8.108;2023-09-07T15:07:25;30.10;96.50
4520;DHT22;2272;49.226;8.108;2023-09-07T15:09:52;30.10;97.10
4520;DHT22;2272;49.226;8.108;2023-09-07T15:12:19;30.00;96.20
4520;DHT22;2272;49.226;8.108;2023-09-07T15:14:46;30.00;96.20
4520;DHT22;2272;49.226;8.108;2023-09-07T15:17:15;30.10;96.60
4520;DHT22;2272;49.226;8.108;2023-09-07T15:19:43;30.10;96.60
4520;DHT22;2272;49.226;8.108;2023-09-07T15:22:10;30.20;97.00
4520;DHT22;2272;49.226;8.108;2023-09-07T15:24:37;30.20;96.70
4520;DHT22;2272;49.226;8.108;2023-09-07T15:27:08;30.20;97.10
4520;DHT22;2272;49.226;8.108;2023-09-07T15:29:35;30.10;96.50
4520;DHT22;2272;49.226;8.108;2023-09-07T15:32:02;30.20;96.50
4520;DHT22;2272;49.226;8.108;2023-09-07T15:34:29;30.10;96.60
4520;DHT22;2272;49.226;8.108;2023-09-07T15:36:57;30.10;96.70
4520;DHT22;2272;49.226;8.108;2023-09-07T15:39:24;30.10;96.50
4520;DHT22;2272;49.226;8.108;2023-09-07T15:41:51;30.00;96.30
4520;DHT22;2272;49.226;8.108;2023-09-07T15:44:19;29.90;96.60
4520;DHT22;2272;49.226;8.108;2023-09-07T15:46:48;29.80;96.40
4520;DHT22;2272;49.226;8.108;2023-09-07T15:49:17;29.70;96.60
4520;DHT22;2272;49.226;8.108;2023-09-07T15:51:47;29.70;96.70
4520;DHT22;2272;49.226;8.108;2023-09-07T15:54:17;29.70;97.10
4520;DHT22;2272;49.226;8.108;2023-09-07T15:56:44;29.60;97.30
4520;DHT22;2272;49.226;8.108;2023-09-07T15:59:11;29.60;97.30
4520;DHT22;2272;49.226;8.108;2023-09-07T16:01:37;29.60;97.10
4520;DHT22;2272;49.226;8.108;2023-09-07T16:04:05;29.60;97.60
4520;DHT22;2272;49.226;8.108;2023-09-07T16:06:31;29.60;97.70
4520;DHT22;2272;49.226;8.108;2023-09-07T16:08:59;29.60;97.70
4520;DHT22;2272;49.226;8.108;2023-09-07T16:11:27;29.60;97.80
4520;DHT22;2272;49.226;8.108;2023-09-07T16:13:54;29.60;97.90
4520;DHT22;2272;49.226;8.108;2023-09-07T16:16:21;29.50;98.10
4520;DHT22;2272;49.226;8.108;2023-09-07T16:18:49;29.40;98.60
4520;DHT22;2272;49.226;8.108;2023-09-07T16:21:16;29.30;98.80
4520;DHT22;2272;49.226;8.108;2023-09-07T16:23:44;29.30;98.80
4520;DHT22;2272;49.226;8.108;2023-09-07T16:26:12;29.30;98.50
4520;DHT22;2272;49.226;8.108;2023-09-07T16:28:42;29.20;98.50
4520;DHT22;2272;49.226;8.108;2023-09-07T16:31:12;29.20;98.30
4520;DHT22;2272;49.226;8.108;2023-09-07T16:33:39;29.10;98.50
4520;DHT22;2272;49.226;8.108;2023-09-07T16:36:06;29.00;98.60